sensor_id;sensor_type;location;lat;lon;timestamp;P1;durP1;ratioP1;P2;durP2;ratioP2
78840;SDS011;68379;47.190;27.558;2023-08-31T00:00:10;9.60;;;4.60;;
78840;SDS011;68379;47.190;27.558;2023-08-31T00:03:00;10.50;;;4.90;;
78840;SDS011;68379;47.190;27.558;2023-08-31T00:05:29;9.10;;;5.40;;
78840;SDS011;68379;47.190;27.558;2023-08-31T00:07:58;7.20;;;5.40;;
78840;SDS011;68379;47.190;27.558;2023-08-31T00:10:27;9.90;;;5.50;;
78840;SDS011;68379;47.190;27.558;2023-08-31T00:12:56;10.90;;;5.60;;
78840;SDS011;68379;47.190;27.558;2023-08-31T00:15:25;10.90;;;6.10;;
78840;SDS011;68379;47.190;27.558;2023-08-31T00:17:55;10.20;;;5.70;;
78840;SDS011;68379;47.190;27.558;2023-08-31T00:20:25;8.60;;;5.70;;
78840;SDS011;68379;47.190;27.558;2023-08-31T00:22:57;11.00;;;6.10;;
78840;SDS011;68379;47.190;27.558;2023-08-31T00:25:26;10.30;;;6.60;;
78840;SDS011;68379;47.190;27.558;2023-08-31T00:27:55;11.20;;;6.30;;
78840;SDS011;68379;47.190;27.558;2023-08-31T00:30:24;12.70;;;6.70;;
78840;SDS011;68379;47.190;27.558;2023-08-31T00:32:56;8.90;;;5.90;;
78840;SDS011;68379;47.190;27.558;2023-08-31T00:35:26;9.70;;;6.20;;
78840;SDS011;68379;47.190;27.558;2023-08-31T00:37:55;11.00;;;6.00;;
78840;SDS011;68379;47.190;27.558;2023-08-31T00:40:25;10.80;;;6.00;;
78840;SDS011;68379;47.190;27.558;2023-08-31T00:42:55;8.70;;;5.60;;
78840;SDS011;68379;47.190;27.558;2023-08-31T00:45:25;10.20;;;5.90;;
78840;SDS011;68379;47.190;27.558;2023-08-31T00:47:54;13.90;;;6.20;;
78840;SDS011;68379;47.190;27.558;2023-08-31T00:50:24;10.70;;;7.00;;
78840;SDS011;68379;47.190;27.558;2023-08-31T00:52:53;10.70;;;6.30;;
78840;SDS011;68379;47.190;27.558;2023-08-31T00:55:23;12.20;;;6.50;;
78840;SDS011;68379;47.190;27.558;2023-08-31T00:57:53;10.50;;;6.50;;
78840;SDS011;68379;47.190;27.558;2023-08-31T01:00:23;9.30;;;6.10;;
78840;SDS011;68379;47.190;27.558;2023-08-31T01:02:59;11.40;;;6.20;;
78840;SDS011;68379;47.190;27.558;2023-08-31T01:05:37;10.40;;;6.40;;
78840;SDS011;68379;47.190;27.558;2023-08-31T01:08:18;8.40;;;5.30;;
78840;SDS011;68379;47.190;27.558;2023-08-31T01:11:00;9.30;;;5.70;;
78840;SDS011;68379;47.190;27.558;2023-08-31T01:13:40;11.70;;;5.50;;
78840;SDS011;68379;47.190;27.558;2023-08-31T01:16:12;8.40;;;5.50;;
78840;SDS011;68379;47.190;27.558;2023-08-31T01:18:43;10.50;;;5.60;;
78840;SDS011;68379;47.190;27.558;2023-08-31T01:21:25;9.70;;;5.20;;
78840;SDS011;68379;47.190;27.558;2023-08-31T01:24:01;8.40;;;4.90;;
78840;SDS011;68379;47.190;27.558;2023-08-31T01:26:33;8.40;;;6.00;;
78840;SDS011;68379;47.190;27.558;2023-08-31T01:29:03;8.20;;;5.20;;
78840;SDS011;68379;47.190;27.558;2023-08-31T01:31:33;7.70;;;5.20;;
78840;SDS011;68379;47.190;27.558;2023-08-31T01:34:10;10.60;;;5.20;;
78840;SDS011;68379;47.190;27.558;2023-08-31T01:36:41;9.60;;;5.30;;
78840;SDS011;68379;47.190;27.558;2023-08-31T01:39:15;7.50;;;4.50;;
78840;SDS011;68379;47.190;27.558;2023-08-31T01:41:51;10.10;;;5.00;;
78840;SDS011;68379;47.190;27.558;2023-08-31T01:44:24;8.80;;;4.60;;
78840;SDS011;68379;47.190;27.558;2023-08-31T01:47:03;6.00;;;4.10;;
78840;SDS011;68379;47.190;27.558;2023-08-31T01:49:37;10.10;;;4.60;;
78840;SDS011;68379;47.190;27.558;2023-08-31T01:52:06;7.20;;;3.30;;
78840;SDS011;68379;47.190;27.558;2023-08-31T01:54:35;7.50;;;4.00;;
78840;SDS011;68379;47.190;27.558;2023-08-31T01:57:05;6.20;;;4.20;;
78840;SDS011;68379;47.190;27.558;2023-08-31T01:59:34;8.50;;;5.50;;
78840;SDS011;68379;47.190;27.558;2023-08-31T02:02:03;7.90;;;4.60;;
78840;SDS011;68379;47.190;27.558;2023-08-31T03:06:44;7.50;;;4.10;;
78840;SDS011;68379;47.190;27.558;2023-08-31T03:09:13;6.30;;;4.10;;
78840;SDS011;68379;47.190;27.558;2023-08-31T03:11:42;7.20;;;4.40;;
78840;SDS011;68379;47.190;27.558;2023-08-31T03:14:11;9.90;;;4.20;;
78840;SDS011;68379;47.190;27.558;2023-08-31T03:16:40;7.30;;;4.70;;
78840;SDS011;68379;47.190;27.558;2023-08-31T03:19:09;8.10;;;4.30;;
78840;SDS011;68379;47.190;27.558;2023-08-31T03:21:38;8.50;;;4.60;;
78840;SDS011;68379;47.190;27.558;2023-08-31T03:24:07;7.00;;;4.70;;
78840;SDS011;68379;47.190;27.558;2023-08-31T03:26:36;9.70;;;4.90;;
78840;SDS011;68379;47.190;27.558;2023-08-31T03:29:05;8.80;;;5.00;;
78840;SDS011;68379;47.190;27.558;2023-08-31T03:31:53;8.30;;;4.40;;
78840;SDS011;68379;47.190;27.558;2023-08-31T03:34:22;6.50;;;4.40;;
78840;SDS011;68379;47.190;27.558;2023-08-31T03:36:51;7.90;;;5.10;;
78840;SDS011;68379;47.190;27.558;2023-08-31T03:39:20;6.40;;;4.20;;
78840;SDS011;68379;47.190;27.558;2023-08-31T03:41:49;8.90;;;4.80;;
78840;SDS011;68379;47.190;27.558;2023-08-31T03:44:19;8.50;;;4.40;;
78840;SDS011;68379;47.190;27.558;2023-08-31T03:46:49;8.00;;;4.70;;
78840;SDS011;68379;47.190;27.558;2023-08-31T03:49:18;6.90;;;4.80;;
78840;SDS011;68379;47.190;27.558;2023-08-31T03:51:47;7.60;;;4.50;;
78840;SDS011;68379;47.190;27.558;2023-08-31T03:54:16;7.80;;;4.80;;
78840;SDS011;68379;47.190;27.558;2023-08-31T03:56:45;9.80;;;5.00;;
78840;SDS011;68379;47.190;27.558;2023-08-31T03:59:14;6.60;;;4.60;;
78840;SDS011;68379;47.190;27.558;2023-08-31T04:01:44;8.90;;;4.70;;
78840;SDS011;68379;47.190;27.558;2023-08-31T04:04:13;8.60;;;5.00;;
78840;SDS011;68379;47.190;27.558;2023-08-31T04:06:42;7.70;;;5.10;;
78840;SDS011;68379;47.190;27.558;2023-08-31T04:09:12;7.30;;;4.30;;
78840;SDS011;68379;47.190;27.558;2023-08-31T04:11:41;7.90;;;4.90;;
78840;SDS011;68379;47.190;27.558;2023-08-31T04:14:10;7.50;;;5.30;;
78840;SDS011;68379;47.190;27.558;2023-08-31T04:16:39;9.10;;;4.70;;
78840;SDS011;68379;47.190;27.558;2023-08-31T04:19:08;8.20;;;4.70;;
78840;SDS011;68379;47.190;27.558;2023-08-31T04:21:37;11.00;;;4.50;;
78840;SDS011;68379;47.190;27.558;2023-08-31T04:24:06;15.00;;;5.00;;
78840;SDS011;68379;47.190;27.558;2023-08-31T04:26:36;8.40;;;4.80;;
78840;SDS011;68379;47.190;27.558;2023-08-31T04:29:05;7.60;;;4.80;;
78840;SDS011;68379;47.190;27.558;2023-08-31T04:31:34;10.20;;;4.70;;
78840;SDS011;68379;47.190;27.558;2023-08-31T04:34:03;7.50;;;4.60;;
78840;SDS011;68379;47.190;27.558;2023-08-31T04:36:32;10.80;;;5.00;;
78840;SDS011;68379;47.190;27.558;2023-08-31T04:39:01;7.30;;;4.10;;
78840;SDS011;68379;47.190;27.558;2023-08-31T04:41:31;7.60;;;4.40;;
78840;SDS011;68379;47.190;27.558;2023-08-31T04:44:00;7.10;;;4.80;;
78840;SDS011;68379;47.190;27.558;2023-08-31T04:46:29;7.80;;;4.60;;
78840;SDS011;68379;47.190;27.558;2023-08-31T04:48:58;9.50;;;4.80;;
78840;SDS011;68379;47.190;27.558;2023-08-31T04:51:29;6.40;;;4.20;;
78840;SDS011;68379;47.190;27.558;2023-08-31T04:53:59;6.00;;;3.80;;
78840;SDS011;68379;47.190;27.558;2023-08-31T04:56:30;7.60;;;4.00;;
78840;SDS011;68379;47.190;27.558;2023-08-31T04:59:00;6.70;;;4.30;;
78840;SDS011;68379;47.190;27.558;2023-08-31T05:01:30;8.50;;;4.80;;
78840;SDS011;68379;47.190;27.558;2023-08-31T05:03:59;6.20;;;4.20;;
78840;SDS011;68379;47.190;27.558;2023-08-31T05:06:28;7.80;;;4.80;;
78840;SDS011;68379;47.190;27.558;2023-08-31T05:08:57;7.10;;;4.20;;
78840;SDS011;68379;47.190;27.558;2023-08-31T05:11:26;5.90;;;3.80;;
78840;SDS011;68379;47.190;27.558;2023-08-31T05:13:56;7.60;;;4.90;;
78840;SDS011;68379;47.190;27.558;2023-08-31T05:16:25;7.60;;;4.30;;
78840;SDS011;68379;47.190;27.558;2023-08-31T05:18:54;6.00;;;4.10;;
78840;SDS011;68379;47.190;27.558;2023-08-31T05:21:23;8.60;;;4.50;;
78840;SDS011;68379;47.190;27.558;2023-08-31T05:23:52;6.90;;;3.90;;
78840;SDS011;68379;47.190;27.558;2023-08-31T05:26:21;7.80;;;4.50;;
78840;SDS011;68379;47.190;27.558;2023-08-31T05:28:50;6.70;;;4.70;;
78840;SDS011;68379;47.190;27.558;2023-08-31T05:31:19;8.50;;;4.70;;
78840;SDS011;68379;47.190;27.558;2023-08-31T05:33:48;10.00;;;6.00;;
78840;SDS011;68379;47.190;27.558;2023-08-31T05:36:17;15.00;;;9.30;;
78840;SDS011;68379;47.190;27.558;2023-08-31T05:38:46;10.70;;;7.80;;
78840;SDS011;68379;47.190;27.558;2023-08-31T05:41:15;13.30;;;8.60;;
78840;SDS011;68379;47.190;27.558;2023-08-31T05:43:44;13.80;;;8.50;;
78840;SDS011;68379;47.190;27.558;2023-08-31T05:46:13;11.90;;;7.90;;
78840;SDS011;68379;47.190;27.558;2023-08-31T05:48:42;10.30;;;6.60;;
78840;SDS011;68379;47.190;27.558;2023-08-31T05:51:11;10.40;;;6.40;;
78840;SDS011;68379;47.190;27.558;2023-08-31T05:53:40;12.70;;;7.00;;
78840;SDS011;68379;47.190;27.558;2023-08-31T05:56:09;10.30;;;7.20;;
78840;SDS011;68379;47.190;27.558;2023-08-31T05:58:38;13.50;;;7.30;;
78840;SDS011;68379;47.190;27.558;2023-08-31T06:01:07;11.50;;;7.00;;
78840;SDS011;68379;47.190;27.558;2023-08-31T06:03:36;10.10;;;6.80;;
78840;SDS011;68379;47.190;27.558;2023-08-31T06:06:05;10.30;;;7.50;;
78840;SDS011;68379;47.190;27.558;2023-08-31T06:08:34;8.90;;;6.90;;
78840;SDS011;68379;47.190;27.558;2023-08-31T06:11:03;9.50;;;7.10;;
78840;SDS011;68379;47.190;27.558;2023-08-31T06:13:32;9.90;;;6.60;;
78840;SDS011;68379;47.190;27.558;2023-08-31T06:16:02;10.40;;;6.40;;
78840;SDS011;68379;47.190;27.558;2023-08-31T06:18:31;11.20;;;7.50;;
78840;SDS011;68379;47.190;27.558;2023-08-31T06:21:00;8.90;;;6.40;;
78840;SDS011;68379;47.190;27.558;2023-08-31T06:23:29;9.60;;;6.30;;
78840;SDS011;68379;47.190;27.558;2023-08-31T06:25:58;9.20;;;6.40;;
78840;SDS011;68379;47.190;27.558;2023-08-31T06:28:27;8.50;;;5.60;;
78840;SDS011;68379;47.190;27.558;2023-08-31T06:30:57;8.80;;;6.20;;
78840;SDS011;68379;47.190;27.558;2023-08-31T06:33:27;9.70;;;6.40;;
78840;SDS011;68379;47.190;27.558;2023-08-31T06:35:56;9.70;;;5.70;;
78840;SDS011;68379;47.190;27.558;2023-08-31T06:38:25;10.10;;;6.50;;
78840;SDS011;68379;47.190;27.558;2023-08-31T06:40:54;9.80;;;6.50;;
78840;SDS011;68379;47.190;27.558;2023-08-31T06:43:26;9.60;;;5.90;;
78840;SDS011;68379;47.190;27.558;2023-08-31T06:45:55;9.10;;;6.40;;
78840;SDS011;68379;47.190;27.558;2023-08-31T06:48:24;8.60;;;6.10;;
78840;SDS011;68379;47.190;27.558;2023-08-31T06:50:53;8.70;;;5.70;;
78840;SDS011;68379;47.190;27.558;2023-08-31T06:53:22;8.60;;;5.80;;
78840;SDS011;68379;47.190;27.558;2023-08-31T06:55:51;8.40;;;5.90;;
78840;SDS011;68379;47.190;27.558;2023-08-31T06:58:20;9.80;;;5.00;;
78840;SDS011;68379;47.190;27.558;2023-08-31T07:00:50;7.50;;;5.30;;
78840;SDS011;68379;47.190;27.558;2023-08-31T07:03:18;9.20;;;6.00;;
78840;SDS011;68379;47.190;27.558;2023-08-31T07:05:47;7.10;;;5.30;;
78840;SDS011;68379;47.190;27.558;2023-08-31T07:08:16;9.50;;;5.20;;
78840;SDS011;68379;47.190;27.558;2023-08-31T07:10:45;8.10;;;5.80;;
78840;SDS011;68379;47.190;27.558;2023-08-31T07:13:15;8.60;;;6.10;;
78840;SDS011;68379;47.190;27.558;2023-08-31T07:15:44;8.70;;;5.10;;
78840;SDS011;68379;47.190;27.558;2023-08-31T07:18:15;8.70;;;5.40;;
78840;SDS011;68379;47.190;27.558;2023-08-31T07:20:46;7.40;;;5.30;;
78840;SDS011;68379;47.190;27.558;2023-08-31T07:23:14;8.20;;;5.80;;
78840;SDS011;68379;47.190;27.558;2023-08-31T07:25:43;7.90;;;5.60;;
78840;SDS011;68379;47.190;27.558;2023-08-31T07:28:13;8.90;;;5.50;;
78840;SDS011;68379;47.190;27.558;2023-08-31T07:30:42;8.40;;;5.30;;
78840;SDS011;68379;47.190;27.558;2023-08-31T07:33:11;8.20;;;5.40;;
78840;SDS011;68379;47.190;27.558;2023-08-31T07:35:40;7.50;;;4.70;;
78840;SDS011;68379;47.190;27.558;2023-08-31T07:38:09;7.30;;;4.70;;
78840;SDS011;68379;47.190;27.558;2023-08-31T07:40:38;8.50;;;5.00;;
78840;SDS011;68379;47.190;27.558;2023-08-31T07:43:08;6.70;;;4.90;;
78840;SDS011;68379;47.190;27.558;2023-08-31T07:45:37;5.20;;;4.40;;
78840;SDS011;68379;47.190;27.558;2023-08-31T07:48:06;7.00;;;4.50;;
78840;SDS011;68379;47.190;27.558;2023-08-31T07:50:35;5.00;;;4.10;;
78840;SDS011;68379;47.190;27.558;2023-08-31T07:53:05;5.40;;;4.30;;
78840;SDS011;68379;47.190;27.558;2023-08-31T07:55:34;7.00;;;4.80;;
78840;SDS011;68379;47.190;27.558;2023-08-31T07:58:04;6.60;;;4.60;;
78840;SDS011;68379;47.190;27.558;2023-08-31T08:00:33;7.40;;;4.60;;
78840;SDS011;68379;47.190;27.558;2023-08-31T08:03:02;6.90;;;4.80;;
78840;SDS011;68379;47.190;27.558;2023-08-31T08:05:31;5.30;;;4.20;;
78840;SDS011;68379;47.190;27.558;2023-08-31T08:08:00;4.70;;;4.20;;
78840;SDS011;68379;47.190;27.558;2023-08-31T08:10:29;6.80;;;4.20;;
78840;SDS011;68379;47.190;27.558;2023-08-31T08:12:58;6.30;;;4.90;;
78840;SDS011;68379;47.190;27.558;2023-08-31T08:15:27;7.70;;;4.70;;
78840;SDS011;68379;47.190;27.558;2023-08-31T08:17:56;8.60;;;4.90;;
78840;SDS011;68379;47.190;27.558;2023-08-31T08:20:26;5.60;;;4.50;;
78840;SDS011;68379;47.190;27.558;2023-08-31T08:22:56;5.70;;;4.40;;
78840;SDS011;68379;47.190;27.558;2023-08-31T08:25:25;6.30;;;4.20;;
78840;SDS011;68379;47.190;27.558;2023-08-31T08:27:54;4.70;;;4.10;;
78840;SDS011;68379;47.190;27.558;2023-08-31T08:30:23;4.90;;;3.50;;
78840;SDS011;68379;47.190;27.558;2023-08-31T08:32:52;4.90;;;4.00;;
78840;SDS011;68379;47.190;27.558;2023-08-31T08:35:21;5.30;;;3.60;;
78840;SDS011;68379;47.190;27.558;2023-08-31T08:37:50;4.20;;;3.10;;
78840;SDS011;68379;47.190;27.558;2023-08-31T08:40:19;4.60;;;3.50;;
78840;SDS011;68379;47.190;27.558;2023-08-31T08:42:48;4.60;;;3.30;;
78840;SDS011;68379;47.190;27.558;2023-08-31T08:45:21;3.50;;;3.10;;
78840;SDS011;68379;47.190;27.558;2023-08-31T08:47:55;3.00;;;2.40;;
78840;SDS011;68379;47.190;27.558;2023-08-31T08:50:26;3.10;;;2.70;;
78840;SDS011;68379;47.190;27.558;2023-08-31T08:52:59;4.10;;;2.70;;
78840;SDS011;68379;47.190;27.558;2023-08-31T08:55:28;4.80;;;2.90;;
78840;SDS011;68379;47.190;27.558;2023-08-31T08:57:58;4.40;;;2.90;;
78840;SDS011;68379;47.190;27.558;2023-08-31T09:00:27;4.40;;;2.90;;
78840;SDS011;68379;47.190;27.558;2023-08-31T09:02:56;2.90;;;2.30;;
78840;SDS011;68379;47.190;27.558;2023-08-31T09:05:27;3.30;;;2.60;;
78840;SDS011;68379;47.190;27.558;2023-08-31T09:10:34;4.30;;;3.00;;
78840;SDS011;68379;47.190;27.558;2023-08-31T09:13:07;4.10;;;2.30;;
78840;SDS011;68379;47.190;27.558;2023-08-31T09:15:39;3.50;;;2.60;;
78840;SDS011;68379;47.190;27.558;2023-08-31T09:18:09;3.80;;;3.00;;
78840;SDS011;68379;47.190;27.558;2023-08-31T09:20:43;3.90;;;2.70;;
78840;SDS011;68379;47.190;27.558;2023-08-31T09:23:14;5.50;;;2.70;;
78840;SDS011;68379;47.190;27.558;2023-08-31T09:25:44;4.90;;;2.60;;
78840;SDS011;68379;47.190;27.558;2023-08-31T09:28:15;3.40;;;2.40;;
78840;SDS011;68379;47.190;27.558;2023-08-31T09:30:46;3.90;;;2.50;;
78840;SDS011;68379;47.190;27.558;2023-08-31T09:33:16;3.30;;;2.50;;
78840;SDS011;68379;47.190;27.558;2023-08-31T09:35:51;3.00;;;2.40;;
78840;SDS011;68379;47.190;27.558;2023-08-31T09:38:21;4.10;;;2.40;;
78840;SDS011;68379;47.190;27.558;2023-08-31T09:40:50;4.10;;;2.50;;
78840;SDS011;68379;47.190;27.558;2023-08-31T09:43:20;2.90;;;2.30;;
78840;SDS011;68379;47.190;27.558;2023-08-31T09:45:50;3.40;;;2.90;;
78840;SDS011;68379;47.190;27.558;2023-08-31T09:48:20;2.70;;;2.10;;
78840;SDS011;68379;47.190;27.558;2023-08-31T09:50:51;4.40;;;2.50;;
78840;SDS011;68379;47.190;27.558;2023-08-31T09:53:23;3.20;;;2.30;;
78840;SDS011;68379;47.190;27.558;2023-08-31T09:55:53;2.50;;;2.00;;
78840;SDS011;68379;47.190;27.558;2023-08-31T09:58:24;2.80;;;1.70;;
78840;SDS011;68379;47.190;27.558;2023-08-31T10:00:54;3.70;;;2.60;;
78840;SDS011;68379;47.190;27.558;2023-08-31T10:03:23;3.10;;;2.00;;
78840;SDS011;68379;47.190;27.558;2023-08-31T10:05:54;3.00;;;1.90;;
78840;SDS011;68379;47.190;27.558;2023-08-31T10:08:24;2.80;;;2.10;;
78840;SDS011;68379;47.190;27.558;2023-08-31T10:10:59;6.60;;;2.50;;
78840;SDS011;68379;47.190;27.558;2023-08-31T10:13:30;3.20;;;2.10;;
78840;SDS011;68379;47.190;27.558;2023-08-31T10:16:04;3.70;;;2.00;;
78840;SDS011;68379;47.190;27.558;2023-08-31T10:18:34;3.70;;;2.40;;
78840;SDS011;68379;47.190;27.558;2023-08-31T10:21:04;3.40;;;2.20;;
78840;SDS011;68379;47.190;27.558;2023-08-31T10:23:33;3.90;;;2.70;;
78840;SDS011;68379;47.190;27.558;2023-08-31T10:26:03;5.10;;;2.60;;
78840;SDS011;68379;47.190;27.558;2023-08-31T10:28:38;3.80;;;2.00;;
78840;SDS011;68379;47.190;27.558;2023-08-31T10:31:10;2.70;;;2.20;;
78840;SDS011;68379;47.190;27.558;2023-08-31T10:33:45;3.30;;;2.20;;
78840;SDS011;68379;47.190;27.558;2023-08-31T10:36:22;2.80;;;1.90;;
78840;SDS011;68379;47.190;27.558;2023-08-31T10:39:06;3.80;;;2.10;;
78840;SDS011;68379;47.190;27.558;2023-08-31T10:41:39;4.30;;;2.10;;
78840;SDS011;68379;47.190;27.558;2023-08-31T10:44:18;3.00;;;1.90;;
78840;SDS011;68379;47.190;27.558;2023-08-31T10:49:16;3.20;;;2.20;;
78840;SDS011;68379;47.190;27.558;2023-08-31T10:51:46;3.40;;;2.20;;
78840;SDS011;68379;47.190;27.558;2023-08-31T10:54:21;2.80;;;2.30;;
78840;SDS011;68379;47.190;27.558;2023-08-31T10:56:54;3.50;;;2.00;;
78840;SDS011;68379;47.190;27.558;2023-08-31T10:59:46;4.40;;;1.90;;
78840;SDS011;68379;47.190;27.558;2023-08-31T11:02:30;2.40;;;1.90;;
78840;SDS011;68379;47.190;27.558;2023-08-31T11:05:02;2.80;;;1.90;;
78840;SDS011;68379;47.190;27.558;2023-08-31T11:07:35;3.70;;;2.40;;
78840;SDS011;68379;47.190;27.558;2023-08-31T11:10:09;4.00;;;2.30;;
78840;SDS011;68379;47.190;27.558;2023-08-31T11:15:12;2.50;;;2.00;;
78840;SDS011;68379;47.190;27.558;2023-08-31T11:17:43;2.90;;;2.00;;
78840;SDS011;68379;47.190;27.558;2023-08-31T11:20:16;4.60;;;2.10;;
78840;SDS011;68379;47.190;27.558;2023-08-31T11:22:47;3.20;;;1.60;;
78840;SDS011;68379;47.190;27.558;2023-08-31T11:25:17;2.70;;;2.00;;
78840;SDS011;68379;47.190;27.558;2023-08-31T11:27:56;2.60;;;2.20;;
78840;SDS011;68379;47.190;27.558;2023-08-31T11:30:26;3.70;;;2.30;;
78840;SDS011;68379;47.190;27.558;2023-08-31T11:33:01;3.80;;;2.30;;
78840;SDS011;68379;47.190;27.558;2023-08-31T11:35:32;2.50;;;1.90;;
78840;SDS011;68379;47.190;27.558;2023-08-31T11:38:03;3.00;;;1.90;;
78840;SDS011;68379;47.190;27.558;2023-08-31T11:40:33;2.30;;;1.80;;
78840;SDS011;68379;47.190;27.558;2023-08-31T11:43:03;3.80;;;2.20;;
78840;SDS011;68379;47.190;27.558;2023-08-31T11:45:33;2.00;;;1.70;;
78840;SDS011;68379;47.190;27.558;2023-08-31T11:48:04;2.00;;;1.80;;
78840;SDS011;68379;47.190;27.558;2023-08-31T11:50:33;3.70;;;1.70;;
78840;SDS011;68379;47.190;27.558;2023-08-31T11:53:03;2.70;;;2.10;;
78840;SDS011;68379;47.190;27.558;2023-08-31T11:55:33;2.80;;;1.50;;
78840;SDS011;68379;47.190;27.558;2023-08-31T11:58:02;2.80;;;1.80;;
78840;SDS011;68379;47.190;27.558;2023-08-31T12:00:35;2.80;;;1.60;;
78840;SDS011;68379;47.190;27.558;2023-08-31T12:03:04;2.30;;;1.50;;
78840;SDS011;68379;47.190;27.558;2023-08-31T12:05:46;5.20;;;2.20;;
78840;SDS011;68379;47.190;27.558;2023-08-31T12:08:16;3.60;;;1.90;;
78840;SDS011;68379;47.190;27.558;2023-08-31T12:10:53;5.80;;;1.70;;
78840;SDS011;68379;47.190;27.558;2023-08-31T12:13:25;3.00;;;2.00;;
78840;SDS011;68379;47.190;27.558;2023-08-31T12:15:57;2.50;;;1.70;;
78840;SDS011;68379;47.190;27.558;2023-08-31T12:18:30;3.30;;;1.90;;
78840;SDS011;68379;47.190;27.558;2023-08-31T12:20:59;2.20;;;1.70;;
78840;SDS011;68379;47.190;27.558;2023-08-31T12:23:28;2.70;;;2.10;;
78840;SDS011;68379;47.190;27.558;2023-08-31T12:25:57;3.00;;;1.60;;
78840;SDS011;68379;47.190;27.558;2023-08-31T12:28:26;3.70;;;2.30;;
78840;SDS011;68379;47.190;27.558;2023-08-31T12:30:55;3.20;;;1.70;;
78840;SDS011;68379;47.190;27.558;2023-08-31T12:33:24;2.50;;;1.90;;
78840;SDS011;68379;47.190;27.558;2023-08-31T12:35:53;2.80;;;2.00;;
78840;SDS011;68379;47.190;27.558;2023-08-31T12:38:22;3.40;;;1.90;;
78840;SDS011;68379;47.190;27.558;2023-08-31T12:40:51;3.50;;;1.90;;
78840;SDS011;68379;47.190;27.558;2023-08-31T12:43:20;2.90;;;2.00;;
78840;SDS011;68379;47.190;27.558;2023-08-31T12:45:49;4.00;;;2.00;;
78840;SDS011;68379;47.190;27.558;2023-08-31T12:48:18;2.40;;;1.70;;
78840;SDS011;68379;47.190;27.558;2023-08-31T12:50:47;2.10;;;1.80;;
78840;SDS011;68379;47.190;27.558;2023-08-31T12:53:16;2.20;;;1.60;;
78840;SDS011;68379;47.190;27.558;2023-08-31T12:55:44;4.20;;;1.90;;
78840;SDS011;68379;47.190;27.558;2023-08-31T12:58:13;2.30;;;1.60;;
78840;SDS011;68379;47.190;27.558;2023-08-31T13:00:42;3.30;;;1.70;;
78840;SDS011;68379;47.190;27.558;2023-08-31T13:03:13;2.50;;;1.90;;
78840;SDS011;68379;47.190;27.558;2023-08-31T13:05:42;3.00;;;1.70;;
78840;SDS011;68379;47.190;27.558;2023-08-31T13:08:11;3.40;;;2.10;;
78840;SDS011;68379;47.190;27.558;2023-08-31T13:10:40;2.90;;;1.70;;
78840;SDS011;68379;47.190;27.558;2023-08-31T13:13:10;4.00;;;1.90;;
78840;SDS011;68379;47.190;27.558;2023-08-31T13:15:39;2.80;;;2.00;;
78840;SDS011;68379;47.190;27.558;2023-08-31T13:18:08;3.00;;;2.10;;
78840;SDS011;68379;47.190;27.558;2023-08-31T13:20:37;3.00;;;2.10;;
78840;SDS011;68379;47.190;27.558;2023-08-31T13:23:06;2.90;;;2.10;;
78840;SDS011;68379;47.190;27.558;2023-08-31T13:25:35;3.20;;;1.90;;
78840;SDS011;68379;47.190;27.558;2023-08-31T13:28:06;2.80;;;1.80;;
78840;SDS011;68379;47.190;27.558;2023-08-31T13:30:35;2.80;;;2.00;;
78840;SDS011;68379;47.190;27.558;2023-08-31T13:33:04;3.00;;;2.30;;
78840;SDS011;68379;47.190;27.558;2023-08-31T13:35:34;2.00;;;1.60;;
78840;SDS011;68379;47.190;27.558;2023-08-31T13:38:03;2.50;;;2.10;;
78840;SDS011;68379;47.190;27.558;2023-08-31T13:40:34;3.20;;;1.90;;
78840;SDS011;68379;47.190;27.558;2023-08-31T13:43:04;3.00;;;1.90;;
78840;SDS011;68379;47.190;27.558;2023-08-31T13:45:33;2.70;;;2.10;;
78840;SDS011;68379;47.190;27.558;2023-08-31T13:48:02;3.10;;;2.00;;
78840;SDS011;68379;47.190;27.558;2023-08-31T13:50:31;3.10;;;2.20;;
78840;SDS011;68379;47.190;27.558;2023-08-31T13:53:00;2.50;;;2.10;;
78840;SDS011;68379;47.190;27.558;2023-08-31T13:55:30;3.10;;;2.30;;
78840;SDS011;68379;47.190;27.558;2023-08-31T13:58:05;3.00;;;2.00;;
78840;SDS011;68379;47.190;27.558;2023-08-31T14:00:35;4.20;;;2.30;;
78840;SDS011;68379;47.190;27.558;2023-08-31T14:03:04;4.30;;;2.30;;
78840;SDS011;68379;47.190;27.558;2023-08-31T14:05:34;3.90;;;2.40;;
78840;SDS011;68379;47.190;27.558;2023-08-31T14:08:03;4.20;;;2.00;;
78840;SDS011;68379;47.190;27.558;2023-08-31T14:10:32;3.10;;;2.00;;
78840;SDS011;68379;47.190;27.558;2023-08-31T14:13:07;2.80;;;2.20;;
78840;SDS011;68379;47.190;27.558;2023-08-31T14:15:35;3.40;;;2.20;;
78840;SDS011;68379;47.190;27.558;2023-08-31T14:18:11;3.10;;;2.50;;
78840;SDS011;68379;47.190;27.558;2023-08-31T14:20:40;3.20;;;2.30;;
78840;SDS011;68379;47.190;27.558;2023-08-31T14:23:09;3.00;;;2.20;;
78840;SDS011;68379;47.190;27.558;2023-08-31T14:25:38;4.40;;;2.30;;
78840;SDS011;68379;47.190;27.558;2023-08-31T14:28:07;5.10;;;2.40;;
78840;SDS011;68379;47.190;27.558;2023-08-31T14:30:36;3.20;;;2.20;;
78840;SDS011;68379;47.190;27.558;2023-08-31T14:33:05;4.10;;;2.90;;
78840;SDS011;68379;47.190;27.558;2023-08-31T14:35:36;3.70;;;2.40;;
78840;SDS011;68379;47.190;27.558;2023-08-31T14:38:06;4.00;;;2.50;;
78840;SDS011;68379;47.190;27.558;2023-08-31T14:40:34;5.30;;;3.00;;
78840;SDS011;68379;47.190;27.558;2023-08-31T14:43:08;6.00;;;2.70;;
78840;SDS011;68379;47.190;27.558;2023-08-31T14:45:38;4.10;;;2.50;;
78840;SDS011;68379;47.190;27.558;2023-08-31T14:48:08;4.20;;;2.80;;
78840;SDS011;68379;47.190;27.558;2023-08-31T14:50:37;3.50;;;2.60;;
78840;SDS011;68379;47.190;27.558;2023-08-31T14:53:09;3.40;;;2.40;;
78840;SDS011;68379;47.190;27.558;2023-08-31T14:55:38;4.40;;;2.90;;
78840;SDS011;68379;47.190;27.558;2023-08-31T14:58:07;3.90;;;2.90;;
78840;SDS011;68379;47.190;27.558;2023-08-31T15:00:36;5.00;;;2.50;;
78840;SDS011;68379;47.190;27.558;2023-08-31T15:03:05;5.80;;;2.60;;
78840;SDS011;68379;47.190;27.558;2023-08-31T15:05:35;5.80;;;2.80;;
78840;SDS011;68379;47.190;27.558;2023-08-31T15:08:04;3.30;;;2.60;;
78840;SDS011;68379;47.190;27.558;2023-08-31T15:10:33;3.80;;;2.30;;
78840;SDS011;68379;47.190;27.558;2023-08-31T15:13:03;4.30;;;2.80;;
78840;SDS011;68379;47.190;27.558;2023-08-31T15:15:32;4.00;;;2.60;;
78840;SDS011;68379;47.190;27.558;2023-08-31T15:18:01;3.60;;;2.60;;
78840;SDS011;68379;47.190;27.558;2023-08-31T15:20:31;3.50;;;2.30;;
78840;SDS011;68379;47.190;27.558;2023-08-31T15:23:00;4.20;;;2.60;;
78840;SDS011;68379;47.190;27.558;2023-08-31T15:25:29;3.50;;;2.80;;
78840;SDS011;68379;47.190;27.558;2023-08-31T15:27:58;3.50;;;2.40;;
78840;SDS011;68379;47.190;27.558;2023-08-31T15:30:27;6.50;;;2.60;;
78840;SDS011;68379;47.190;27.558;2023-08-31T15:33:02;3.20;;;2.70;;
78840;SDS011;68379;47.190;27.558;2023-08-31T15:35:32;5.70;;;3.00;;
78840;SDS011;68379;47.190;27.558;2023-08-31T15:38:01;2.90;;;2.10;;
78840;SDS011;68379;47.190;27.558;2023-08-31T15:40:30;5.40;;;2.90;;
78840;SDS011;68379;47.190;27.558;2023-08-31T15:42:59;4.50;;;3.10;;
78840;SDS011;68379;47.190;27.558;2023-08-31T15:45:28;3.70;;;2.80;;
78840;SDS011;68379;47.190;27.558;2023-08-31T15:47:57;4.50;;;2.70;;
78840;SDS011;68379;47.190;27.558;2023-08-31T15:50:26;3.90;;;2.50;;
78840;SDS011;68379;47.190;27.558;2023-08-31T15:52:56;4.30;;;2.90;;
78840;SDS011;68379;47.190;27.558;2023-08-31T15:55:26;3.30;;;2.20;;
78840;SDS011;68379;47.190;27.558;2023-08-31T15:57:55;5.30;;;3.00;;
78840;SDS011;68379;47.190;27.558;2023-08-31T16:00:23;4.40;;;2.50;;